sensor_id;sensor_type;location;lat;lon;timestamp;temperature;humidity
32536;DHT22;18974;50.838;4.636;2022-10-22T00:02:17;15.10;99.90
32536;DHT22;18974;50.838;4.636;2022-10-22T00:04:46;15.00;99.90
32536;DHT22;18974;50.838;4.636;2022-10-22T00:07:13;14.90;99.90
32536;DHT22;18974;50.838;4.636;2022-10-22T00:09:40;14.90;99.90
32536;DHT22;18974;50.838;4.636;2022-10-22T00:12:05;14.90;99.90
32536;DHT22;18974;50.838;4.636;2022-10-22T00:14:31;14.90;99.90
32536;DHT22;18974;50.838;4.636;2022-10-22T00:16:57;15.00;99.90
32536;DHT22;18974;50.838;4.636;2022-10-22T00:19:26;15.00;99.90
32536;DHT22;18974;50.838;4.636;2022-10-22T00:21:51;14.90;99.90
32536;DHT22;18974;50.838;4.636;2022-10-22T00:24:17;14.90;99.90
32536;DHT22;18974;50.838;4.636;2022-10-22T00:26:42;15.00;99.90
32536;DHT22;18974;50.838;4.636;2022-10-22T00:29:08;14.90;99.90
32536;DHT22;18974;50.838;4.636;2022-10-22T00:31:34;14.80;99.90
32536;DHT22;18974;50.838;4.636;2022-10-22T00:33:59;14.80;99.90
32536;DHT22;18974;50.838;4.636;2022-10-22T00:36:25;14.70;99.90
32536;DHT22;18974;50.838;4.636;2022-10-22T00:38:51;14.70;99.90
32536;DHT22;18974;50.838;4.636;2022-10-22T00:41:17;14.60;99.90
32536;DHT22;18974;50.838;4.636;2022-10-22T00:44:00;14.70;99.90
32536;DHT22;18974;50.838;4.636;2022-10-22T00:46:26;14.60;99.90
32536;DHT22;18974;50.838;4.636;2022-10-22T00:48:54;14.80;99.90
32536;DHT22;18974;50.838;4.636;2022-10-22T00:51:22;14.70;99.90
32536;DHT22;18974;50.838;4.636;2022-10-22T00:53:53;14.80;99.90
32536;DHT22;18974;50.838;4.636;2022-10-22T00:56:21;14.80;99.90
32536;DHT22;18974;50.838;4.636;2022-10-22T00:58:53;14.80;99.90
32536;DHT22;18974;50.838;4.636;2022-10-22T01:01:27;14.70;99.90
32536;DHT22;18974;50.838;4.636;2022-10-22T01:03:53;14.70;99.90
32536;DHT22;18974;50.838;4.636;2022-10-22T01:06:30;14.70;99.90
32536;DHT22;18974;50.838;4.636;2022-10-22T01:20:43;14.70;99.90
32536;DHT22;18974;50.838;4.636;2022-10-22T01:28:57;14.80;99.90
32536;DHT22;18974;50.838;4.636;2022-10-22T01:31:32;14.90;99.90
32536;DHT22;18974;50.838;4.636;2022-10-22T01:33:59;14.90;99.90
32536;DHT22;18974;50.838;4.636;2022-10-22T01:36:28;14.80;99.90
32536;DHT22;18974;50.838;4.636;2022-10-22T01:38:54;14.80;99.90
32536;DHT22;18974;50.838;4.636;2022-10-22T01:41:21;14.80;99.90
32536;DHT22;18974;50.838;4.636;2022-10-22T01:43:47;14.90;99.90
32536;DHT22;18974;50.838;4.636;2022-10-22T01:46:13;14.90;99.90
32536;DHT22;18974;50.838;4.636;2022-10-22T01:49:12;14.90;99.90
32536;DHT22;18974;50.838;4.636;2022-10-22T01:54:49;15.00;99.90
32536;DHT22;18974;50.838;4.636;2022-10-22T01:58:00;15.00;99.90
32536;DHT22;18974;50.838;4.636;2022-10-22T02:00:21;15.00;99.90
32536;DHT22;18974;50.838;4.636;2022-10-22T02:08:05;14.90;99.90
32536;DHT22;18974;50.838;4.636;2022-10-22T02:10:31;15.00;99.90
32536;DHT22;18974;50.838;4.636;2022-10-22T02:12:58;14.90;99.90
32536;DHT22;18974;50.838;4.636;2022-10-22T02:15:26;14.90;99.90
32536;DHT22;18974;50.838;4.636;2022-10-22T02:17:55;14.90;99.90
32536;DHT22;18974;50.838;4.636;2022-10-22T02:20:28;15.00;99.90
32536;DHT22;18974;50.838;4.636;2022-10-22T02:22:54;15.00;99.90
32536;DHT22;18974;50.838;4.636;2022-10-22T02:25:21;15.10;99.90
32536;DHT22;18974;50.838;4.636;2022-10-22T02:30:35;15.00;99.90
32536;DHT22;18974;50.838;4.636;2022-10-22T02:35:32;15.10;99.90
32536;DHT22;18974;50.838;4.636;2022-10-22T02:37:58;15.10;99.90
32536;DHT22;18974;50.838;4.636;2022-10-22T02:40:25;15.20;99.90
32536;DHT22;18974;50.838;4.636;2022-10-22T02:42:52;15.20;99.90
32536;DHT22;18974;50.838;4.636;2022-10-22T02:45:19;15.10;99.90
32536;DHT22;18974;50.838;4.636;2022-10-22T02:47:45;15.10;99.90
32536;DHT22;18974;50.838;4.636;2022-10-22T02:50:11;15.10;99.90
32536;DHT22;18974;50.838;4.636;2022-10-22T02:52:37;15.10;99.90
32536;DHT22;18974;50.838;4.636;2022-10-22T02:55:03;15.10;99.90
32536;DHT22;18974;50.838;4.636;2022-10-22T02:57:29;15.20;99.90
32536;DHT22;18974;50.838;4.636;2022-10-22T02:59:55;15.10;99.90
32536;DHT22;18974;50.838;4.636;2022-10-22T03:02:20;15.20;99.90
32536;DHT22;18974;50.838;4.636;2022-10-22T03:04:46;15.10;99.90
32536;DHT22;18974;50.838;4.636;2022-10-22T03:07:12;15.10;99.90
32536;DHT22;18974;50.838;4.636;2022-10-22T03:09:37;15.20;99.90
32536;DHT22;18974;50.838;4.636;2022-10-22T03:12:03;15.10;99.90
32536;DHT22;18974;50.838;4.636;2022-10-22T03:14:29;15.10;99.90
32536;DHT22;18974;50.838;4.636;2022-10-22T03:16:55;15.10;99.90
32536;DHT22;18974;50.838;4.636;2022-10-22T03:19:21;15.10;99.90
32536;DHT22;18974;50.838;4.636;2022-10-22T03:21:49;15.10;99.90
32536;DHT22;18974;50.838;4.636;2022-10-22T03:24:21;15.10;99.90
32536;DHT22;18974;50.838;4.636;2022-10-22T03:26:49;15.00;99.90
32536;DHT22;18974;50.838;4.636;2022-10-22T03:29:16;15.10;99.90
32536;DHT22;18974;50.838;4.636;2022-10-22T03:31:42;15.00;99.90
32536;DHT22;18974;50.838;4.636;2022-10-22T03:34:08;15.10;99.90
32536;DHT22;18974;50.838;4.636;2022-10-22T03:36:36;15.00;99.90
32536;DHT22;18974;50.838;4.636;2022-10-22T03:39:04;15.00;99.90
32536;DHT22;18974;50.838;4.636;2022-10-22T03:41:29;15.00;99.90
32536;DHT22;18974;50.838;4.636;2022-10-22T03:43:55;15.00;99.90
32536;DHT22;18974;50.838;4.636;2022-10-22T03:46:22;15.00;99.90
32536;DHT22;18974;50.838;4.636;2022-10-22T03:48:48;15.00;99.90
32536;DHT22;18974;50.838;4.636;2022-10-22T03:51:14;15.00;99.90
32536;DHT22;18974;50.838;4.636;2022-10-22T03:53:39;15.10;99.90
32536;DHT22;18974;50.838;4.636;2022-10-22T03:56:09;15.00;99.90
32536;DHT22;18974;50.838;4.636;2022-10-22T03:58:38;15.00;99.90
32536;DHT22;18974;50.838;4.636;2022-10-22T04:01:09;15.10;99.90
32536;DHT22;18974;50.838;4.636;2022-10-22T04:03:35;15.10;99.90
32536;DHT22;18974;50.838;4.636;2022-10-22T04:06:07;15.10;99.90
32536;DHT22;18974;50.838;4.636;2022-10-22T04:08:33;15.20;99.90
32536;DHT22;18974;50.838;4.636;2022-10-22T04:10:59;15.20;99.90
32536;DHT22;18974;50.838;4.636;2022-10-22T04:13:25;15.20;99.90
32536;DHT22;18974;50.838;4.636;2022-10-22T04:15:51;15.30;99.90
32536;DHT22;18974;50.838;4.636;2022-10-22T04:18:18;15.40;99.90
32536;DHT22;18974;50.838;4.636;2022-10-22T04:20:44;15.30;99.90
32536;DHT22;18974;50.838;4.636;2022-10-22T04:23:11;15.40;99.90
32536;DHT22;18974;50.838;4.636;2022-10-22T04:25:37;15.40;99.90
32536;DHT22;18974;50.838;4.636;2022-10-22T04:28:05;15.40;99.90
32536;DHT22;18974;50.838;4.636;2022-10-22T04:30:32;15.30;99.90
32536;DHT22;18974;50.838;4.636;2022-10-22T04:32:58;15.30;99.90
32536;DHT22;18974;50.838;4.636;2022-10-22T04:35:23;15.20;99.90
32536;DHT22;18974;50.838;4.636;2022-10-22T04:37:49;15.10;99.90
32536;DHT22;18974;50.838;4.636;2022-10-22T04:40:15;15.10;99.90
32536;DHT22;18974;50.838;4.636;2022-10-22T04:42:40;15.10;99.90
32536;DHT22;18974;50.838;4.636;2022-10-22T04:45:06;15.10;99.90
32536;DHT22;18974;50.838;4.636;2022-10-22T04:47:32;14.90;99.90
32536;DHT22;18974;50.838;4.636;2022-10-22T04:49:58;15.00;99.90
32536;DHT22;18974;50.838;4.636;2022-10-22T04:52:23;15.00;99.90
32536;DHT22;18974;50.838;4.636;2022-10-22T04:54:49;14.90;99.90
32536;DHT22;18974;50.838;4.636;2022-10-22T04:57:15;15.00;99.90
32536;DHT22;18974;50.838;4.636;2022-10-22T04:59:40;15.00;99.90
32536;DHT22;18974;50.838;4.636;2022-10-22T05:02:06;15.10;99.90
32536;DHT22;18974;50.838;4.636;2022-10-22T05:04:32;15.00;99.90
32536;DHT22;18974;50.838;4.636;2022-10-22T05:06:58;15.10;99.90
32536;DHT22;18974;50.838;4.636;2022-10-22T05:09:23;15.10;99.90
32536;DHT22;18974;50.838;4.636;2022-10-22T05:11:51;15.10;99.90
32536;DHT22;18974;50.838;4.636;2022-10-22T05:14:19;15.10;99.90
32536;DHT22;18974;50.838;4.636;2022-10-22T05:16:45;15.10;99.90
32536;DHT22;18974;50.838;4.636;2022-10-22T05:19:41;15.20;99.90
32536;DHT22;18974;50.838;4.636;2022-10-22T05:22:07;15.30;99.90
32536;DHT22;18974;50.838;4.636;2022-10-22T05:24:33;15.40;99.90
32536;DHT22;18974;50.838;4.636;2022-10-22T05:27:01;15.40;99.90
32536;DHT22;18974;50.838;4.636;2022-10-22T05:29:27;15.40;99.90
32536;DHT22;18974;50.838;4.636;2022-10-22T05:31:52;15.40;99.90
32536;DHT22;18974;50.838;4.636;2022-10-22T05:34:18;15.50;99.90
32536;DHT22;18974;50.838;4.636;2022-10-22T05:36:44;15.50;99.90
32536;DHT22;18974;50.838;4.636;2022-10-22T05:39:10;15.50;99.90
32536;DHT22;18974;50.838;4.636;2022-10-22T05:41:36;15.40;99.90
32536;DHT22;18974;50.838;4.636;2022-10-22T05:44:03;15.40;99.90
32536;DHT22;18974;50.838;4.636;2022-10-22T05:46:33;15.40;99.90
32536;DHT22;18974;50.838;4.636;2022-10-22T05:49:02;15.40;99.90
32536;DHT22;18974;50.838;4.636;2022-10-22T05:51:30;15.50;99.90
32536;DHT22;18974;50.838;4.636;2022-10-22T05:54:02;15.60;99.90
32536;DHT22;18974;50.838;4.636;2022-10-22T05:56:29;15.60;99.90
32536;DHT22;18974;50.838;4.636;2022-10-22T05:58:56;15.70;99.90
32536;DHT22;18974;50.838;4.636;2022-10-22T06:01:30;15.70;99.90
32536;DHT22;18974;50.838;4.636;2022-10-22T06:03:58;15.70;99.90
32536;DHT22;18974;50.838;4.636;2022-10-22T06:06:33;15.70;99.90
32536;DHT22;18974;50.838;4.636;2022-10-22T06:09:13;15.70;99.90
32536;DHT22;18974;50.838;4.636;2022-10-22T06:11:40;15.70;99.90
32536;DHT22;18974;50.838;4.636;2022-10-22T06:14:06;15.80;99.90
32536;DHT22;18974;50.838;4.636;2022-10-22T06:16:32;15.70;99.90
32536;DHT22;18974;50.838;4.636;2022-10-22T06:18:59;15.70;99.90
32536;DHT22;18974;50.838;4.636;2022-10-22T06:21:28;15.70;99.90
32536;DHT22;18974;50.838;4.636;2022-10-22T06:23:58;15.70;99.90
32536;DHT22;18974;50.838;4.636;2022-10-22T06:26:25;15.80;99.90
32536;DHT22;18974;50.838;4.636;2022-10-22T06:28:51;15.80;99.90
32536;DHT22;18974;50.838;4.636;2022-10-22T06:31:17;15.80;99.90
32536;DHT22;18974;50.838;4.636;2022-10-22T06:33:42;15.90;99.90
32536;DHT22;18974;50.838;4.636;2022-10-22T06:36:10;15.90;99.90
32536;DHT22;18974;50.838;4.636;2022-10-22T06:38:37;16.00;99.90
32536;DHT22;18974;50.838;4.636;2022-10-22T06:41:09;16.00;99.90
32536;DHT22;18974;50.838;4.636;2022-10-22T06:43:34;15.90;99.90
32536;DHT22;18974;50.838;4.636;2022-10-22T06:46:06;15.90;99.90
32536;DHT22;18974;50.838;4.636;2022-10-22T06:48:34;15.90;99.90
32536;DHT22;18974;50.838;4.636;2022-10-22T06:51:03;15.90;99.90
32536;DHT22;18974;50.838;4.636;2022-10-22T06:53:30;15.80;99.90
32536;DHT22;18974;50.838;4.636;2022-10-22T06:55:56;15.90;99.90
32536;DHT22;18974;50.838;4.636;2022-10-22T06:58:22;15.80;99.90
32536;DHT22;18974;50.838;4.636;2022-10-22T07:00:47;15.80;99.90
32536;DHT22;18974;50.838;4.636;2022-10-22T07:03:14;15.70;99.90
32536;DHT22;18974;50.838;4.636;2022-10-22T07:05:40;15.70;99.90
32536;DHT22;18974;50.838;4.636;2022-10-22T07:08:06;15.80;99.90
32536;DHT22;18974;50.838;4.636;2022-10-22T07:10:32;15.80;99.90
32536;DHT22;18974;50.838;4.636;2022-10-22T07:12:57;15.90;99.90
32536;DHT22;18974;50.838;4.636;2022-10-22T07:15:23;16.00;99.90
32536;DHT22;18974;50.838;4.636;2022-10-22T07:17:49;16.00;99.90
32536;DHT22;18974;50.838;4.636;2022-10-22T07:20:17;16.10;99.90
32536;DHT22;18974;50.838;4.636;2022-10-22T07:22:43;16.00;99.90
32536;DHT22;18974;50.838;4.636;2022-10-22T07:25:09;16.10;99.90
32536;DHT22;18974;50.838;4.636;2022-10-22T07:27:35;16.10;99.90
32536;DHT22;18974;50.838;4.636;2022-10-22T07:30:01;16.20;99.90
32536;DHT22;18974;50.838;4.636;2022-10-22T07:32:27;16.10;99.90
32536;DHT22;18974;50.838;4.636;2022-10-22T07:34:52;16.10;99.90
32536;DHT22;18974;50.838;4.636;2022-10-22T07:37:18;16.10;99.90
32536;DHT22;18974;50.838;4.636;2022-10-22T07:39:47;16.10;99.90
32536;DHT22;18974;50.838;4.636;2022-10-22T07:42:12;16.10;99.90
32536;DHT22;18974;50.838;4.636;2022-10-22T07:44:38;16.10;99.90
32536;DHT22;18974;50.838;4.636;2022-10-22T07:47:04;16.20;99.90
32536;DHT22;18974;50.838;4.636;2022-10-22T07:49:29;16.40;99.90
32536;DHT22;18974;50.838;4.636;2022-10-22T07:51:55;16.30;99.90
32536;DHT22;18974;50.838;4.636;2022-10-22T07:54:22;16.30;99.90
32536;DHT22;18974;50.838;4.636;2022-10-22T07:56:47;16.30;99.90
32536;DHT22;18974;50.838;4.636;2022-10-22T07:59:13;16.30;99.90
32536;DHT22;18974;50.838;4.636;2022-10-22T08:01:39;16.40;99.90
32536;DHT22;18974;50.838;4.636;2022-10-22T08:04:04;16.40;99.90
32536;DHT22;18974;50.838;4.636;2022-10-22T08:06:33;16.50;99.90
32536;DHT22;18974;50.838;4.636;2022-10-22T08:08:58;16.60;99.90
32536;DHT22;18974;50.838;4.636;2022-10-22T08:11:24;16.70;99.90
32536;DHT22;18974;50.838;4.636;2022-10-22T08:13:51;16.80;99.90
32536;DHT22;18974;50.838;4.636;2022-10-22T08:16:17;16.90;99.90
32536;DHT22;18974;50.838;4.636;2022-10-22T08:18:43;17.00;99.90
32536;DHT22;18974;50.838;4.636;2022-10-22T08:21:10;17.00;99.90
32536;DHT22;18974;50.838;4.636;2022-10-22T08:23:35;17.10;99.90
32536;DHT22;18974;50.838;4.636;2022-10-22T08:26:01;17.10;99.90
32536;DHT22;18974;50.838;4.636;2022-10-22T08:28:27;17.10;99.90
32536;DHT22;18974;50.838;4.636;2022-10-22T08:30:54;17.10;99.90
32536;DHT22;18974;50.838;4.636;2022-10-22T08:33:20;17.30;99.90
32536;DHT22;18974;50.838;4.636;2022-10-22T08:35:50;17.30;99.90
32536;DHT22;18974;50.838;4.636;2022-10-22T08:38:17;17.30;99.90
32536;DHT22;18974;50.838;4.636;2022-10-22T08:40:47;17.40;99.90
32536;DHT22;18974;50.838;4.636;2022-10-22T08:43:40;17.60;99.90
32536;DHT22;18974;50.838;4.636;2022-10-22T08:46:36;17.70;99.90
32536;DHT22;18974;50.838;4.636;2022-10-22T08:49:11;17.70;99.90
32536;DHT22;18974;50.838;4.636;2022-10-22T08:51:38;17.70;99.90
32536;DHT22;18974;50.838;4.636;2022-10-22T08:56:41;18.00;99.90
32536;DHT22;18974;50.838;4.636;2022-10-22T09:01:48;18.00;99.90
32536;DHT22;18974;50.838;4.636;2022-10-22T09:04:40;18.00;99.90
32536;DHT22;18974;50.838;4.636;2022-10-22T09:07:09;18.10;99.90
32536;DHT22;18974;50.838;4.636;2022-10-22T09:09:41;18.10;99.90
32536;DHT22;18974;50.838;4.636;2022-10-22T09:12:14;18.00;99.90
32536;DHT22;18974;50.838;4.636;2022-10-22T09:14:40;18.10;99.90
32536;DHT22;18974;50.838;4.636;2022-10-22T09:17:33;18.00;99.90
32536;DHT22;18974;50.838;4.636;2022-10-22T09:20:15;17.90;99.90
32536;DHT22;18974;50.838;4.636;2022-10-22T09:25:43;18.00;99.90
32536;DHT22;18974;50.838;4.636;2022-10-22T09:28:10;18.00;99.90
32536;DHT22;18974;50.838;4.636;2022-10-22T09:30:37;18.10;99.90
32536;DHT22;18974;50.838;4.636;2022-10-22T09:36:01;18.20;99.90
32536;DHT22;18974;50.838;4.636;2022-10-22T09:38:35;18.20;99.90
32536;DHT22;18974;50.838;4.636;2022-10-22T09:41:03;18.40;99.90
32536;DHT22;18974;50.838;4.636;2022-10-22T09:43:30;18.50;99.90
32536;DHT22;18974;50.838;4.636;2022-10-22T09:46:00;18.60;99.90
32536;DHT22;18974;50.838;4.636;2022-10-22T09:48:38;18.60;99.90
32536;DHT22;18974;50.838;4.636;2022-10-22T09:53:41;18.50;99.90
32536;DHT22;18974;50.838;4.636;2022-10-22T09:56:55;18.60;99.90
32536;DHT22;18974;50.838;4.636;2022-10-22T09:58:56;18.70;99.90
32536;DHT22;18974;50.838;4.636;2022-10-22T10:01:34;18.90;99.90
32536;DHT22;18974;50.838;4.636;2022-10-22T10:04:05;19.00;99.90
32536;DHT22;18974;50.838;4.636;2022-10-22T10:06:33;19.10;99.90
32536;DHT22;18974;50.838;4.636;2022-10-22T10:08:59;19.10;99.90
32536;DHT22;18974;50.838;4.636;2022-10-22T10:17:32;19.40;99.90
32536;DHT22;18974;50.838;4.636;2022-10-22T10:20:20;19.20;99.90
32536;DHT22;18974;50.838;4.636;2022-10-22T10:25:45;18.80;99.90
32536;DHT22;18974;50.838;4.636;2022-10-22T10:28:25;18.70;99.90
32536;DHT22;18974;50.838;4.636;2022-10-22T10:36:57;18.40;99.90
32536;DHT22;18974;50.838;4.636;2022-10-22T10:39:57;18.40;99.90
32536;DHT22;18974;50.838;4.636;2022-10-22T10:48:22;18.00;99.90
32536;DHT22;18974;50.838;4.636;2022-10-22T10:51:42;17.90;99.90
32536;DHT22;18974;50.838;4.636;2022-10-22T10:54:15;18.00;99.90
32536;DHT22;18974;50.838;4.636;2022-10-22T10:59:49;18.00;99.90
32536;DHT22;18974;50.838;4.636;2022-10-22T11:02:44;18.10;99.90
32536;DHT22;18974;50.838;4.636;2022-10-22T11:05:29;18.10;99.90
32536;DHT22;18974;50.838;4.636;2022-10-22T11:08:24;18.30;99.90
32536;DHT22;18974;50.838;4.636;2022-10-22T11:11:00;18.50;99.90
32536;DHT22;18974;50.838;4.636;2022-10-22T11:13:35;18.70;99.90
32536;DHT22;18974;50.838;4.636;2022-10-22T11:16:22;18.70;99.90
32536;DHT22;18974;50.838;4.636;2022-10-22T11:19:10;18.80;99.90
32536;DHT22;18974;50.838;4.636;2022-10-22T11:27:58;18.60;99.90
32536;DHT22;18974;50.838;4.636;2022-10-22T11:30:30;18.70;99.90
32536;DHT22;18974;50.838;4.636;2022-10-22T11:33:02;18.90;99.90
32536;DHT22;18974;50.838;4.636;2022-10-22T11:35:43;19.00;99.90
32536;DHT22;18974;50.838;4.636;2022-10-22T11:38:21;19.20;99.90
32536;DHT22;18974;50.838;4.636;2022-10-22T11:40:58;19.40;99.90
32536;DHT22;18974;50.838;4.636;2022-10-22T11:43:33;19.60;99.90
32536;DHT22;18974;50.838;4.636;2022-10-22T11:46:08;19.90;99.90
32536;DHT22;18974;50.838;4.636;2022-10-22T11:48:36;20.20;99.90
32536;DHT22;18974;50.838;4.636;2022-10-22T11:51:02;20.30;99.90
32536;DHT22;18974;50.838;4.636;2022-10-22T11:53:36;20.40;99.90
32536;DHT22;18974;50.838;4.636;2022-10-22T12:17:08;20.70;99.90
32536;DHT22;18974;50.838;4.636;2022-10-22T12:19:42;20.70;99.90
32536;DHT22;18974;50.838;4.636;2022-10-22T12:22:21;20.50;99.90
32536;DHT22;18974;50.838;4.636;2022-10-22T12:24:50;20.30;99.90
32536;DHT22;18974;50.838;4.636;2022-10-22T12:27:21;20.10;99.90
32536;DHT22;18974;50.838;4.636;2022-10-22T12:29:47;20.10;99.90
32536;DHT22;18974;50.838;4.636;2022-10-22T12:32:14;20.10;99.90
32536;DHT22;18974;50.838;4.636;2022-10-22T12:34:48;20.20;99.90
32536;DHT22;18974;50.838;4.636;2022-10-22T12:37:16;20.20;99.90
32536;DHT22;18974;50.838;4.636;2022-10-22T12:39:43;20.20;99.90
32536;DHT22;18974;50.838;4.636;2022-10-22T12:42:14;20.20;99.90
32536;DHT22;18974;50.838;4.636;2022-10-22T12:44:40;20.20;99.90
32536;DHT22;18974;50.838;4.636;2022-10-22T12:47:06;20.10;99.90
32536;DHT22;18974;50.838;4.636;2022-10-22T12:49:40;20.10;99.90
32536;DHT22;18974;50.838;4.636;2022-10-22T12:52:10;20.30;99.90
32536;DHT22;18974;50.838;4.636;2022-10-22T12:54:38;20.50;99.90
32536;DHT22;18974;50.838;4.636;2022-10-22T12:57:04;20.70;99.90
32536;DHT22;18974;50.838;4.636;2022-10-22T12:59:33;21.00;99.90
32536;DHT22;18974;50.838;4.636;2022-10-22T13:02:00;21.20;99.90
32536;DHT22;18974;50.838;4.636;2022-10-22T13:04:37;21.20;99.90
32536;DHT22;18974;50.838;4.636;2022-10-22T13:07:16;21.10;99.90
32536;DHT22;18974;50.838;4.636;2022-10-22T13:12:24;21.20;99.90
32536;DHT22;18974;50.838;4.636;2022-10-22T13:14:50;21.20;99.90
32536;DHT22;18974;50.838;4.636;2022-10-22T13:17:37;21.10;99.90
32536;DHT22;18974;50.838;4.636;2022-10-22T13:20:20;21.10;99.90
32536;DHT22;18974;50.838;4.636;2022-10-22T13:22:53;21.00;99.90
32536;DHT22;18974;50.838;4.636;2022-10-22T13:25:36;20.90;99.90
32536;DHT22;18974;50.838;4.636;2022-10-22T13:30:37;20.50;99.90
32536;DHT22;18974;50.838;4.636;2022-10-22T13:33:06;20.40;99.90
32536;DHT22;18974;50.838;4.636;2022-10-22T13:35:35;20.50;99.90
32536;DHT22;18974;50.838;4.636;2022-10-22T13:38:01;20.60;99.90
32536;DHT22;18974;50.838;4.636;2022-10-22T13:40:27;20.80;99.90
32536;DHT22;18974;50.838;4.636;2022-10-22T13:42:53;20.90;99.90
32536;DHT22;18974;50.838;4.636;2022-10-22T13:45:19;20.80;99.90
32536;DHT22;18974;50.838;4.636;2022-10-22T13:47:49;20.70;99.90
32536;DHT22;18974;50.838;4.636;2022-10-22T13:50:18;20.50;99.90
32536;DHT22;18974;50.838;4.636;2022-10-22T13:52:53;20.30;99.90
32536;DHT22;18974;50.838;4.636;2022-10-22T13:55:20;20.20;99.90
32536;DHT22;18974;50.838;4.636;2022-10-22T13:57:46;20.10;99.90
32536;DHT22;18974;50.838;4.636;2022-10-22T14:03:56;20.00;99.90
32536;DHT22;18974;50.838;4.636;2022-10-22T14:06:23;19.90;99.90
32536;DHT22;18974;50.838;4.636;2022-10-22T14:08:59;19.90;99.90
32536;DHT22;18974;50.838;4.636;2022-10-22T14:11:26;19.90;99.90
32536;DHT22;18974;50.838;4.636;2022-10-22T14:13:53;19.80;99.90
32536;DHT22;18974;50.838;4.636;2022-10-22T14:16:22;19.90;99.90
32536;DHT22;18974;50.838;4.636;2022-10-22T14:18:49;20.00;99.90
32536;DHT22;18974;50.838;4.636;2022-10-22T14:21:16;20.20;99.90
32536;DHT22;18974;50.838;4.636;2022-10-22T14:23:44;20.20;99.90
32536;DHT22;18974;50.838;4.636;2022-10-22T14:26:30;20.20;99.90
32536;DHT22;18974;50.838;4.636;2022-10-22T14:28:58;20.20;99.90
32536;DHT22;18974;50.838;4.636;2022-10-22T14:31:24;20.20;99.90
32536;DHT22;18974;50.838;4.636;2022-10-22T14:33:50;20.20;99.90
32536;DHT22;18974;50.838;4.636;2022-10-22T14:36:17;20.10;99.90
32536;DHT22;18974;50.838;4.636;2022-10-22T14:38:47;20.10;99.90
32536;DHT22;18974;50.838;4.636;2022-10-22T14:41:19;20.00;99.90
32536;DHT22;18974;50.838;4.636;2022-10-22T14:43:45;19.90;99.90
32536;DHT22;18974;50.838;4.636;2022-10-22T14:46:13;19.70;99.90
32536;DHT22;18974;50.838;4.636;2022-10-22T14:48:39;19.70;99.90
32536;DHT22;18974;50.838;4.636;2022-10-22T14:51:05;19.60;99.90
32536;DHT22;18974;50.838;4.636;2022-10-22T14:53:30;19.60;99.90
32536;DHT22;18974;50.838;4.636;2022-10-22T14:55:56;19.50;99.90
32536;DHT22;18974;50.838;4.636;2022-10-22T14:58:24;19.40;99.90
32536;DHT22;18974;50.838;4.636;2022-10-22T15:00:50;19.30;99.90
32536;DHT22;18974;50.838;4.636;2022-10-22T15:03:16;19.30;99.90
32536;DHT22;18974;50.838;4.636;2022-10-22T15:05:42;19.40;99.90
32536;DHT22;18974;50.838;4.636;2022-10-22T15:08:09;19.50;99.90
32536;DHT22;18974;50.838;4.636;2022-10-22T15:10:35;19.60;99.90
32536;DHT22;18974;50.838;4.636;2022-10-22T15:13:00;19.60;99.90
32536;DHT22;18974;50.838;4.636;2022-10-22T15:15:26;19.60;99.90
32536;DHT22;18974;50.838;4.636;2022-10-22T15:17:52;19.60;99.90
32536;DHT22;18974;50.838;4.636;2022-10-22T15:20:17;19.50;99.90
32536;DHT22;18974;50.838;4.636;2022-10-22T15:22:43;19.60;99.90
32536;DHT22;18974;50.838;4.636;2022-10-22T15:25:10;19.60;99.90
32536;DHT22;18974;50.838;4.636;2022-10-22T15:27:37;19.60;99.90
32536;DHT22;18974;50.838;4.636;2022-10-22T15:30:04;19.50;99.90
32536;DHT22;18974;50.838;4.636;2022-10-22T15:32:29;19.60;99.90
32536;DHT22;18974;50.838;4.636;2022-10-22T15:34:58;19.60;99.90
32536;DHT22;18974;50.838;4.636;2022-10-22T15:37:24;19.50;99.90
32536;DHT22;18974;50.838;4.636;2022-10-22T15:39:50;19.40;99.90
32536;DHT22;18974;50.838;4.636;2022-10-22T15:42:16;19.30;99.90
32536;DHT22;18974;50.838;4.636;2022-10-22T15:44:43;19.30;99.90
32536;DHT22;18974;50.838;4.636;2022-10-22T15:47:12;19.20;99.90
32536;DHT22;18974;50.838;4.636;2022-10-22T15:49:38;19.20;99.90
32536;DHT22;18974;50.838;4.636;2022-10-22T15:52:05;19.20;99.90
32536;DHT22;18974;50.838;4.636;2022-10-22T15:54:31;19.30;99.90
32536;DHT22;18974;50.838;4.636;2022-10-22T15:56:58;19.30;99.90
32536;DHT22;18974;50.838;4.636;2022-10-22T15:59:26;19.30;99.90
32536;DHT22;18974;50.838;4.636;2022-10-22T16:01:51;19.30;99.90
32536;DHT22;18974;50.838;4.636;2022-10-22T16:04:17;19.30;99.90
32536;DHT22;18974;50.838;4.636;2022-10-22T16:06:46;19.30;99.90
32536;DHT22;18974;50.838;4.636;2022-10-22T16:09:17;19.20;99.90
32536;DHT22;18974;50.838;4.636;2022-10-22T16:11:44;19.30;99.90
32536;DHT22;18974;50.838;4.636;2022-10-22T16:14:11;19.20;99.90
32536;DHT22;18974;50.838;4.636;2022-10-22T16:16:37;19.20;99.90
32536;DHT22;18974;50.838;4.636;2022-10-22T16:19:08;19.10;99.90
32536;DHT22;18974;50.838;4.636;2022-10-22T16:21:34;19.00;99.90
32536;DHT22;18974;50.838;4.636;2022-10-22T16:24:00;19.00;99.90
32536;DHT22;18974;50.838;4.636;2022-10-22T16:26:26;18.80;99.90
32536;DHT22;18974;50.838;4.636;2022-10-22T16:28:51;18.60;99.90
32536;DHT22;18974;50.838;4.636;2022-10-22T16:31:17;18.50;99.90
32536;DHT22;18974;50.838;4.636;2022-10-22T16:33:44;18.40;99.90
32536;DHT22;18974;50.838;4.636;2022-10-22T16:36:16;18.30;99.90
32536;DHT22;18974;50.838;4.636;2022-10-22T16:38:43;18.20;99.90
32536;DHT22;18974;50.838;4.636;2022-10-22T16:41:11;18.10;99.90
32536;DHT22;18974;50.838;4.636;2022-10-22T16:43:42;18.10;99.90
32536;DHT22;18974;50.838;4.636;2022-10-22T16:46:09;18.00;99.90
32536;DHT22;18974;50.838;4.636;2022-10-22T16:48:35;18.00;99.90
32536;DHT22;18974;50.838;4.636;2022-10-22T16:51:09;18.00;99.90
32536;DHT22;18974;50.838;4.636;2022-10-22T16:53:35;18.00;99.90
32536;DHT22;18974;50.838;4.636;2022-10-22T16:56:01;18.00;99.90
32536;DHT22;18974;50.838;4.636;2022-10-22T16:58:27;18.00;99.90
32536;DHT22;18974;50.838;4.636;2022-10-22T17:00:52;18.00;99.90
32536;DHT22;18974;50.838;4.636;2022-10-22T17:03:18;17.90;99.90
32536;DHT22;18974;50.838;4.636;2022-10-22T17:05:43;17.90;99.90
32536;DHT22;18974;50.838;4.636;2022-10-22T17:08:09;17.90;99.90
32536;DHT22;18974;50.838;4.636;2022-10-22T17:10:36;17.90;99.90
32536;DHT22;18974;50.838;4.636;2022-10-22T17:13:03;17.80;99.90
32536;DHT22;18974;50.838;4.636;2022-10-22T17:15:29;17.80;99.90
32536;DHT22;18974;50.838;4.636;2022-10-22T17:17:55;17.70;99.90
32536;DHT22;18974;50.838;4.636;2022-10-22T17:20:20;17.70;99.90
32536;DHT22;18974;50.838;4.636;2022-10-22T17:22:46;17.60;99.90
32536;DHT22;18974;50.838;4.636;2022-10-22T17:28:09;17.40;99.90
32536;DHT22;18974;50.838;4.636;2022-10-22T17:30:35;17.40;99.90